Lively, Canada
Current Conditions -  °F | °C
As of 8:00 AM on Friday 24 Oct 2014 (Local Time) from CYSB Reporting Station
Few Clouds Few Clouds  
Wind Chill: 21°   Ceiling: Unl
Heat Index: 27°   Visibility: 20mi
Dew Point: 27°   Wind: 5mph
Humidity: 100%   Direction: 300°WNW
Pressure: 30"   Gusts: NA
Location:  46.44°N, 81.15°W
Report Text: CYSB 241200Z 30004KT 20SM FEW220 M03/M03 A3000 RMK CI2 SLP171
Loading
Personal Weather Stations






























Interactive Weather Map
Tropical Storm Tracking
New forecast layout! Learn more

10-Day Weather Forecast

Advertisements
Track Severe Weather on mobile